Time;durP1;ratioP1;P1;durP2;ratioP2;P2;SDS_P1;SDS_P2;PMS_P1;PMS_P2;Temp;Humidity;BMP_temperature;BMP_pressure;BME280_temperature;BME280_humidity;BME280_pressure;Samples;Min_cycle;Max_cycle;Signal;HPM_P1;HPM_P2
2020/12/20 00:01:14;;;;;;;8.57;4.82;;;9.80;97.90;;;;;;5011753;28;20489;-70
2020/12/20 00:03:40;;;;;;;7.75;5.07;;;9.80;98.00;;;;;;5010254;28;20475;-69
2020/12/20 00:06:07;;;;;;;7.72;5.30;;;9.70;98.00;;;;;;5008793;28;20048;-68
2020/12/20 00:08:33;;;;;;;9.20;5.00;;;9.80;97.80;;;;;;5000922;28;20057;-69
2020/12/20 00:11:00;;;;;;;10.23;5.32;;;9.80;97.80;;;;;;5011645;28;20457;-68
2020/12/20 00:13:26;;;;;;;9.38;4.78;;;9.80;97.90;;;;;;5007839;28;20108;-68
2020/12/20 00:15:52;;;;;;;9.50;5.15;;;9.80;97.80;;;;;;5000519;28;20101;-68
2020/12/20 00:18:19;;;;;;;9.73;5.78;;;9.80;97.70;;;;;;5009485;28;20053;-70
2020/12/20 00:20:45;;;;;;;8.93;5.28;;;9.70;97.70;;;;;;5008020;28;20054;-69
2020/12/20 00:23:11;;;;;;;10.48;5.95;;;9.70;97.60;;;;;;4995661;28;20109;-70
2020/12/20 00:25:37;;;;;;;8.43;5.25;;;9.70;97.60;;;;;;5007793;28;20490;-69
2020/12/20 00:28:04;;;;;;;10.00;4.93;;;9.70;97.70;;;;;;5009188;28;20115;-69
2020/12/20 00:30:30;;;;;;;8.73;5.35;;;9.70;97.60;;;;;;5010999;28;20461;-68
2020/12/20 00:32:57;;;;;;;8.98;5.22;;;9.70;97.60;;;;;;5008855;28;20100;-68
2020/12/20 00:35:23;;;;;;;6.25;4.50;;;9.70;97.50;;;;;;5004335;28;20058;-68
2020/12/20 00:37:50;;;;;;;10.10;5.53;;;9.70;97.50;;;;;;4994241;28;20054;-69
2020/12/20 00:40:16;;;;;;;8.82;5.10;;;9.60;97.60;;;;;;5011110;28;20053;-68
2020/12/20 00:42:42;;;;;;;9.55;5.38;;;9.60;97.90;;;;;;5001587;28;20100;-69
2020/12/20 00:45:09;;;;;;;10.55;4.95;;;9.70;97.80;;;;;;5012177;28;20064;-69
2020/12/20 00:47:35;;;;;;;13.80;5.10;;;9.60;97.40;;;;;;5005447;28;20057;-69
2020/12/20 00:50:03;;;;;;;10.07;5.05;;;9.60;97.50;;;;;;5007474;28;20054;-69
2020/12/20 00:52:29;;;;;;;7.72;4.93;;;9.60;97.40;;;;;;5004679;28;20120;-69
2020/12/20 00:54:55;;;;;;;9.00;5.28;;;9.60;97.20;;;;;;5004355;28;20101;-69
2020/12/20 00:57:21;;;;;;;8.35;5.03;;;9.70;97.40;;;;;;4996205;28;20049;-69
2020/12/20 00:59:48;;;;;;;10.13;4.85;;;9.60;97.00;;;;;;5011077;28;20053;-68
2020/12/20 01:02:14;;;;;;;9.75;5.13;;;9.70;97.40;;;;;;5008941;28;20101;-69
2020/12/20 01:04:41;;;;;;;10.20;5.40;;;9.70;97.30;;;;;;5008353;28;20477;-68
2020/12/20 01:07:08;;;;;;;8.88;5.22;;;9.70;97.40;;;;;;5002955;28;20460;-68
2020/12/20 01:09:34;;;;;;;8.38;4.90;;;9.70;97.20;;;;;;5007150;28;20050;-68
2020/12/20 01:12:01;;;;;;;8.00;5.03;;;9.70;97.10;;;;;;5011908;28;20088;-68
2020/12/20 01:14:28;;;;;;;7.53;4.55;;;9.70;97.10;;;;;;5005351;28;20465;-68
2020/12/20 01:16:54;;;;;;;8.82;5.35;;;9.60;96.90;;;;;;5004188;28;20485;-69
2020/12/20 01:19:36;;;;;;;7.53;4.47;;;9.70;96.90;;;;;;5010805;28;20048;-69
2020/12/20 01:22:03;;;;;;;9.40;5.10;;;9.70;99.30;;;;;;5004901;28;20073;-69
2020/12/20 01:24:29;;;;;;;8.88;5.30;;;9.70;99.00;;;;;;4992869;28;20050;-69
2020/12/20 01:26:55;;;;;;;6.75;4.82;;;9.80;98.70;;;;;;5009609;28;20057;-69
2020/12/20 01:29:22;;;;;;;10.05;5.13;;;9.80;98.10;;;;;;5007158;28;20064;-70
2020/12/20 01:31:49;;;;;;;8.82;5.03;;;9.80;97.50;;;;;;5009767;28;20128;-69
2020/12/20 01:34:16;;;;;;;8.23;5.10;;;9.90;97.50;;;;;;5009613;28;20092;-67
2020/12/20 01:36:42;;;;;;;8.35;5.35;;;9.80;97.50;;;;;;5003833;28;20405;-68
2020/12/20 01:39:11;;;;;;;6.93;4.38;;;9.70;97.30;;;;;;5004889;28;20445;-69
2020/12/20 01:41:38;;;;;;;8.73;5.05;;;9.70;97.40;;;;;;5010190;28;20069;-68
2020/12/20 01:44:05;;;;;;;9.48;5.20;;;9.60;97.80;;;;;;5003966;28;20085;-67
2020/12/20 01:46:33;;;;;;;9.57;5.65;;;9.70;97.70;;;;;;5010528;28;20046;-69
2020/12/20 01:49:02;;;;;;;9.68;5.18;;;9.60;97.80;;;;;;5007800;28;20042;-68
2020/12/20 01:51:29;;;;;;;10.25;5.65;;;9.70;97.70;;;;;;5007205;28;20042;-69
2020/12/20 01:53:55;;;;;;;9.98;4.97;;;9.70;97.80;;;;;;5009887;28;20050;-69
2020/12/20 01:56:22;;;;;;;8.68;5.35;;;9.70;97.90;;;;;;5004570;28;20394;-69
2020/12/20 01:58:49;;;;;;;11.95;5.60;;;9.60;97.80;;;;;;4988386;28;20505;-69
2020/12/20 02:01:15;;;;;;;8.52;5.30;;;9.50;98.10;;;;;;4994274;28;20112;-69
2020/12/20 02:03:43;;;;;;;7.95;5.18;;;9.50;97.90;;;;;;5003172;28;20130;-69
2020/12/20 02:06:13;;;;;;;10.02;5.40;;;9.40;97.80;;;;;;5008088;28;20043;-69
2020/12/20 02:08:39;;;;;;;8.23;5.20;;;9.50;97.70;;;;;;4992110;28;20049;-69
2020/12/20 02:11:15;;;;;;;14.43;5.55;;;9.50;97.70;;;;;;5007782;28;20108;-68
2020/12/20 02:13:43;;;;;;;8.90;4.95;;;9.50;97.60;;;;;;4998655;28;20409;-71
2020/12/20 02:16:12;;;;;;;8.63;5.10;;;9.40;97.50;;;;;;5007977;28;20458;-69
2020/12/20 02:18:39;;;;;;;7.68;4.53;;;9.40;97.30;;;;;;5009651;28;20073;-68
2020/12/20 02:21:13;;;;;;;7.15;5.05;;;9.40;97.50;;;;;;4991967;28;20474;-67
2020/12/20 02:23:43;;;;;;;7.93;5.15;;;9.50;97.50;;;;;;5002568;28;20489;-69
2020/12/20 02:26:10;;;;;;;;;;;9.60;97.30;;;;;;5001582;28;20081;-68
2020/12/20 02:28:37;;;;;;;7.95;4.78;;;9.60;97.30;;;;;;4987063;28;19922;-68
2020/12/20 02:31:04;;;;;;;8.07;5.00;;;9.60;97.20;;;;;;4991682;28;20462;-68
2020/12/20 02:33:31;;;;;;;9.60;5.35;;;9.60;97.30;;;;;;5006724;28;20105;-69
2020/12/20 02:35:58;;;;;;;11.73;5.20;;;9.50;97.10;;;;;;5008659;28;20050;-69
2020/12/20 02:38:25;;;;;;;9.55;5.22;;;9.60;97.00;;;;;;5007630;28;20046;-69
2020/12/20 02:40:52;;;;;;;10.68;5.15;;;9.60;97.00;;;;;;5008822;28;20045;-69
2020/12/20 02:43:18;;;;;;;7.25;5.20;;;9.60;97.10;;;;;;5006521;28;20046;-69
2020/12/20 02:45:44;;;;;;;7.70;4.85;;;9.50;96.90;;;;;;5005653;28;20057;-68
2020/12/20 02:48:11;;;;;;;8.10;5.10;;;9.50;97.00;;;;;;5004247;28;20116;-68
2020/12/20 02:50:37;;;;;;;10.30;5.00;;;9.40;97.00;;;;;;5008459;28;20054;-67
2020/12/20 02:53:03;;;;;;;7.93;4.90;;;9.40;97.90;;;;;;5007971;28;20104;-69
2020/12/20 02:55:30;;;;;;;7.32;5.22;;;9.40;98.50;;;;;;4989383;28;20109;-68
2020/12/20 02:57:56;;;;;;;8.13;5.05;;;9.40;99.10;;;;;;5007779;28;20057;-68
2020/12/20 03:00:23;;;;;;;7.60;4.95;;;9.30;99.70;;;;;;5009736;28;20046;-68
2020/12/20 03:02:50;;;;;;;7.80;4.72;;;9.30;99.90;;;;;;5011257;28;20428;-68
2020/12/20 03:05:17;;;;;;;10.57;5.30;;;9.30;99.90;;;;;;5006393;28;20104;-69
2020/12/20 03:07:48;;;;;;;10.15;5.40;;;9.30;99.50;;;;;;4990998;28;20054;-68
2020/12/20 03:10:17;;;;;;;8.95;5.13;;;9.40;99.40;;;;;;4995794;28;20382;-68
2020/12/20 03:12:44;;;;;;;8.30;5.07;;;9.30;98.80;;;;;;5007542;28;20046;-68
2020/12/20 03:15:11;;;;;;;11.30;4.95;;;9.30;98.50;;;;;;5009254;28;20109;-71
2020/12/20 03:17:38;;;;;;;11.95;5.45;;;9.30;98.60;;;;;;5013183;28;20046;-68
2020/12/20 03:20:05;;;;;;;8.80;5.53;;;9.30;99.10;;;;;;5009221;28;20108;-70
2020/12/20 03:22:31;;;;;;;7.25;4.78;;;9.40;99.20;;;;;;5009570;28;20346;-69
2020/12/20 03:24:58;;;;;;;8.20;5.03;;;9.30;98.30;;;;;;4995798;28;20460;-69
2020/12/20 03:27:24;;;;;;;8.00;4.90;;;9.30;98.10;;;;;;5008469;28;20108;-69
2020/12/20 03:29:51;;;;;;;11.15;5.47;;;9.30;97.90;;;;;;5013752;28;20440;-68
2020/12/20 03:32:17;;;;;;;8.85;5.72;;;9.30;98.00;;;;;;5009226;28;20104;-69
2020/12/20 03:34:44;;;;;;;10.15;5.30;;;9.20;99.00;;;;;;5007913;28;20050;-68
2020/12/20 03:37:10;;;;;;;7.72;4.93;;;9.10;99.20;;;;;;5008915;28;20070;-70
2020/12/20 03:39:37;;;;;;;9.40;5.32;;;9.20;99.60;;;;;;5005902;28;20045;-69
2020/12/20 03:42:03;;;;;;;10.32;5.53;;;9.20;99.70;;;;;;5011917;28;20050;-67
2020/12/20 03:44:29;;;;;;;9.32;4.85;;;9.10;99.10;;;;;;4997135;28;20465;-68
2020/12/20 03:46:56;;;;;;;9.45;5.65;;;9.00;99.30;;;;;;4992043;28;20049;-69
2020/12/20 03:49:22;;;;;;;11.52;5.78;;;9.00;99.20;;;;;;4999420;28;20104;-68
2020/12/20 03:51:48;;;;;;;8.88;5.18;;;9.00;99.00;;;;;;5008648;28;20056;-68
2020/12/20 03:54:15;;;;;;;9.68;5.57;;;9.00;99.20;;;;;;4997355;28;20635;-68
2020/12/20 03:56:41;;;;;;;9.38;5.75;;;8.90;99.50;;;;;;5009108;28;20493;-69
2020/12/20 03:59:08;;;;;;;10.63;6.88;;;8.90;98.90;;;;;;5007616;28;20053;-68
2020/12/20 04:01:34;;;;;;;12.93;7.15;;;8.90;99.10;;;;;;5005762;28;20354;-68
2020/12/20 04:04:00;;;;;;;12.38;7.25;;;8.80;99.50;;;;;;5009857;28;20081;-68
2020/12/20 04:06:27;;;;;;;12.68;8.00;;;8.80;99.90;;;;;;5009410;28;20536;-69
2020/12/20 04:08:53;;;;;;;12.65;7.70;;;8.80;99.90;;;;;;5006087;28;20101;-69
2020/12/20 04:11:19;;;;;;;13.70;8.35;;;8.80;99.90;;;;;;4989054;28;20088;-68
2020/12/20 04:13:46;;;;;;;12.77;8.32;;;8.70;99.90;;;;;;5009576;28;20080;-68
2020/12/20 04:16:12;;;;;;;16.10;10.00;;;8.70;99.90;;;;;;5006198;28;20046;-68
2020/12/20 04:18:38;;;;;;;15.32;9.70;;;8.60;99.90;;;;;;5008548;28;20046;-69
2020/12/20 04:21:05;;;;;;;12.75;8.80;;;8.50;99.90;;;;;;5012589;28;20057;-69
2020/12/20 04:23:31;;;;;;;14.40;9.57;;;8.60;99.90;;;;;;5011659;28;20050;-69
2020/12/20 04:25:59;;;;;;;15.15;9.00;;;8.70;99.90;;;;;;5007381;28;20050;-69
2020/12/20 04:28:25;;;;;;;11.85;8.48;;;8.70;99.90;;;;;;4993183;28;20112;-67
2020/12/20 04:30:52;;;;;;;14.93;8.38;;;8.70;99.90;;;;;;5006562;28;20498;-68
2020/12/20 04:33:19;;;;;;;12.10;7.95;;;8.80;99.90;;;;;;5004647;28;20536;-68
2020/12/20 04:35:47;;;;;;;15.10;8.23;;;8.80;99.90;;;;;;5008138;28;20038;-67
2020/12/20 04:38:13;;;;;;;10.65;6.57;;;8.60;99.90;;;;;;5011893;28;20050;-67
2020/12/20 04:40:40;;;;;;;10.55;6.43;;;8.50;99.90;;;;;;5001658;28;20054;-67
2020/12/20 04:43:11;;;;;;;12.00;6.93;;;8.50;99.90;;;;;;5009238;28;20046;-67
2020/12/20 04:45:38;;;;;;;10.80;6.57;;;8.50;99.90;;;;;;5008235;28;20061;-67
2020/12/20 04:48:05;;;;;;;12.48;6.82;;;8.40;99.90;;;;;;5008706;28;20046;-68
2020/12/20 04:50:32;;;;;;;11.98;7.28;;;8.40;99.90;;;;;;5011146;28;20061;-67
2020/12/20 04:53:00;;;;;;;12.52;6.60;;;8.40;99.90;;;;;;5007439;28;20100;-68
2020/12/20 04:55:27;;;;;;;11.40;6.82;;;8.40;99.90;;;;;;5005516;28;20441;-70
2020/12/20 04:57:55;;;;;;;10.07;6.10;;;8.20;99.90;;;;;;5010618;28;20042;-68
2020/12/20 05:00:22;;;;;;;12.75;6.50;;;8.10;99.90;;;;;;5002762;28;20046;-68
2020/12/20 05:02:49;;;;;;;8.45;6.13;;;8.20;99.90;;;;;;5009447;28;20221;-68
2020/12/20 05:05:15;;;;;;;12.90;5.80;;;8.20;99.90;;;;;;5008923;28;20050;-68
2020/12/20 05:07:44;;;;;;;14.85;6.32;;;8.30;99.90;;;;;;5008560;28;20058;-68
2020/12/20 05:10:10;;;;;;;14.73;6.28;;;8.20;99.90;;;;;;5001213;28;20402;-67
2020/12/20 05:12:37;;;;;;;9.55;6.07;;;8.20;99.90;;;;;;5009593;28;20054;-67
2020/12/20 05:15:24;;;;;;;10.48;5.95;;;8.10;99.90;;;;;;5009016;28;20104;-67
2020/12/20 05:18:13;;;;;;;12.77;6.53;;;8.20;99.90;;;;;;5010374;28;20440;-67
2020/12/20 05:20:42;;;;;;;11.75;6.40;;;8.10;99.90;;;;;;5009877;28;20531;-67
2020/12/20 05:23:09;;;;;;;9.75;5.43;;;8.30;99.90;;;;;;5008771;28;20757;-67
2020/12/20 05:25:37;;;;;;;9.05;5.90;;;8.30;99.90;;;;;;5012327;28;20054;-67
2020/12/20 05:28:24;;;;;;;10.55;5.80;;;8.30;99.90;;;;;;4992301;28;20109;-67
2020/12/20 05:30:50;;;;;;;8.85;5.43;;;8.40;99.90;;;;;;5006942;28;20057;-68
2020/12/20 05:33:30;;;;;;;11.68;5.88;;;8.40;99.90;;;;;;5011416;28;20108;-69
2020/12/20 05:36:05;;;;;;;11.05;6.07;;;8.30;99.90;;;;;;5008664;28;20503;-68
2020/12/20 05:38:33;;;;;;;11.55;5.50;;;8.40;99.90;;;;;;5008146;28;20134;-70
2020/12/20 05:41:00;;;;;;;10.50;5.60;;;8.30;99.90;;;;;;5010072;28;20046;-69
2020/12/20 05:43:28;;;;;;;10.93;5.57;;;8.40;99.90;;;;;;5008551;28;20485;-68
2020/12/20 05:45:57;;;;;;;9.30;5.70;;;8.40;99.90;;;;;;5008507;28;20196;-68
2020/12/20 05:48:26;;;;;;;11.32;5.68;;;8.40;99.90;;;;;;5011903;28;20419;-68
2020/12/20 05:50:54;;;;;;;9.20;5.63;;;8.40;99.90;;;;;;5006950;28;20058;-69
2020/12/20 05:53:26;;;;;;;9.32;6.00;;;8.20;99.90;;;;;;5008664;28;20050;-69
2020/12/20 05:55:54;;;;;;;8.35;5.75;;;8.20;99.90;;;;;;5006013;28;20096;-68
2020/12/20 05:58:20;;;;;;;9.50;5.70;;;8.30;99.90;;;;;;5006561;28;20046;-68
2020/12/20 06:00:47;;;;;;;11.05;6.78;;;8.30;99.90;;;;;;5007684;28;20092;-68
2020/12/20 06:03:15;;;;;;;11.60;6.70;;;8.30;99.90;;;;;;5010464;28;20050;-69
2020/12/20 06:05:45;;;;;;;11.63;6.60;;;8.30;99.90;;;;;;5003028;28;20676;-68
2020/12/20 06:08:14;;;;;;;14.02;6.53;;;8.30;99.90;;;;;;5006305;28;20057;-69
2020/12/20 06:10:46;;;;;;;12.60;6.45;;;8.30;99.90;;;;;;5007351;28;20053;-68
2020/12/20 06:13:14;;;;;;;13.05;6.25;;;8.40;99.90;;;;;;5009318;28;20512;-68
2020/12/20 06:15:41;;;;;;;13.60;7.03;;;8.40;99.90;;;;;;5004675;28;20046;-69
2020/12/20 06:18:21;;;;;;;13.07;7.25;;;8.20;99.90;;;;;;5008521;28;20046;-69
2020/12/20 06:20:52;;;;;;;11.27;6.53;;;8.10;99.90;;;;;;5002238;28;20054;-68
2020/12/20 06:23:39;;;;;;;11.65;6.70;;;8.20;99.90;;;;;;5012345;28;20050;-68
2020/12/20 06:26:06;;;;;;;9.70;6.07;;;8.20;99.90;;;;;;5007260;28;20045;-67
2020/12/20 06:28:33;;;;;;;11.18;6.18;;;8.10;99.90;;;;;;5007524;28;20061;-68
2020/12/20 06:31:02;;;;;;;10.20;6.00;;;8.10;99.90;;;;;;5006669;28;20050;-68
2020/12/20 06:33:34;;;;;;;7.88;5.40;;;8.10;99.90;;;;;;5010141;28;20100;-68
2020/12/20 06:36:15;;;;;;;10.40;6.57;;;8.20;99.90;;;;;;5001669;28;20100;-68
2020/12/20 06:38:51;;;;;;;9.88;6.30;;;8.20;99.90;;;;;;5013428;28;20478;-68
2020/12/20 06:41:38;;;;;;;11.02;5.85;;;8.20;99.90;;;;;;5011401;28;20050;-68
2020/12/20 06:44:14;;;;;;;9.48;6.05;;;8.10;99.90;;;;;;5010996;28;20077;-69
2020/12/20 06:46:43;;;;;;;10.05;6.35;;;8.10;99.90;;;;;;5012457;28;20417;-68
2020/12/20 06:49:32;;;;;;;10.95;6.28;;;8.00;99.90;;;;;;5009439;28;20085;-69
2020/12/20 06:52:17;;;;;;;11.02;6.15;;;8.10;99.90;;;;;;5010338;28;20501;-68
2020/12/20 06:55:06;;;;;;;10.98;6.93;;;8.00;99.90;;;;;;5009246;28;20096;-68
2020/12/20 06:57:33;;;;;;;12.82;7.97;;;8.00;99.90;;;;;;5011144;28;20062;-68
2020/12/20 06:59:59;;;;;;;13.65;7.70;;;8.00;99.90;;;;;;5007361;28;20498;-69
2020/12/20 07:02:43;;;;;;;11.98;7.60;;;8.00;99.90;;;;;;5013507;28;20057;-67
2020/12/20 07:05:34;;;;;;;14.43;7.93;;;7.90;99.90;;;;;;5013156;28;20096;-67
2020/12/20 07:08:11;;;;;;;13.48;6.90;;;7.90;99.90;;;;;;4998868;28;20462;-68
2020/12/20 07:10:51;;;;;;;13.13;7.13;;;8.00;99.90;;;;;;5007982;28;20140;-68
2020/12/20 07:13:42;;;;;;;12.15;7.30;;;8.10;99.90;;;;;;5011293;28;20108;-68
2020/12/20 07:16:13;;;;;;;;;;;8.00;99.90;;;;;;4999445;28;20049;-69
2020/12/20 07:18:54;;;;;;;11.20;6.82;;;8.10;99.90;;;;;;5010599;28;19925;-68
2020/12/20 07:21:23;;;;;;;11.18;6.63;;;8.20;99.90;;;;;;5013993;28;20042;-69
2020/12/20 07:23:54;;;;;;;10.30;6.80;;;8.10;99.90;;;;;;5007473;28;20539;-69
2020/12/20 07:26:21;;;;;;;11.98;6.15;;;8.10;99.90;;;;;;5012487;28;20124;-69
2020/12/20 07:28:47;;;;;;;9.90;6.10;;;8.00;99.90;;;;;;4995330;28;20100;-68
2020/12/20 07:31:16;;;;;;;10.38;6.07;;;8.20;99.90;;;;;;5006402;28;20077;-68
2020/12/20 07:33:43;;;;;;;12.32;6.63;;;8.20;99.90;;;;;;5012647;28;20100;-68
2020/12/20 07:36:10;;;;;;;10.90;7.10;;;8.10;99.90;;;;;;5012729;28;20046;-68
2020/12/20 07:38:36;;;;;;;11.15;6.40;;;8.10;99.90;;;;;;4995195;28;20471;-68
2020/12/20 07:41:09;;;;;;;12.65;6.40;;;8.10;99.90;;;;;;4999174;28;20042;-68
2020/12/20 07:43:36;;;;;;;11.27;6.38;;;8.10;99.90;;;;;;5011195;28;20046;-68
2020/12/20 07:46:07;;;;;;;10.95;6.18;;;8.10;99.90;;;;;;5010298;28;20107;-68
2020/12/20 07:48:33;;;;;;;;;;;8.10;99.90;;;;;;5014288;28;20057;-68
2020/12/20 07:51:12;;;;;;;10.02;6.47;;;8.20;99.90;;;;;;5007287;28;19921;-68
2020/12/20 07:53:51;;;;;;;13.00;6.70;;;8.30;99.90;;;;;;4989540;28;20049;-70
2020/12/20 07:56:24;;;;;;;10.88;6.47;;;8.20;99.90;;;;;;5007754;28;20473;-69
2020/12/20 07:58:55;;;;;;;10.93;6.70;;;8.20;99.90;;;;;;5009774;28;20057;-69
2020/12/20 08:01:23;;;;;;;12.32;6.88;;;8.10;99.90;;;;;;5006639;28;20073;-69
2020/12/20 08:03:59;;;;;;;9.90;6.30;;;8.10;99.90;;;;;;5012520;28;20425;-70
2020/12/20 08:06:26;;;;;;;9.05;5.95;;;8.00;99.90;;;;;;5007986;28;20049;-68
2020/12/20 08:09:00;;;;;;;11.98;6.72;;;8.00;99.90;;;;;;5009617;28;20050;-68
2020/12/20 08:11:26;;;;;;;13.02;6.63;;;8.10;99.90;;;;;;5010016;28;20097;-68
2020/12/20 08:14:14;;;;;;;11.82;6.35;;;8.10;99.90;;;;;;5007872;28;20046;-68
2020/12/20 08:16:43;;;;;;;13.45;6.78;;;8.10;99.90;;;;;;5005480;28;20056;-68
2020/12/20 08:19:14;;;;;;;10.27;6.68;;;8.20;99.90;;;;;;5012612;28;20042;-67
2020/12/20 08:22:01;;;;;;;11.98;6.90;;;8.20;99.90;;;;;;5010681;28;20060;-68
2020/12/20 08:24:35;;;;;;;11.18;6.72;;;8.20;99.90;;;;;;5002160;28;20400;-68
2020/12/20 08:27:25;;;;;;;11.70;6.93;;;8.20;99.90;;;;;;5012806;28;20053;-68
2020/12/20 08:29:55;;;;;;;9.98;7.05;;;8.20;99.90;;;;;;5011564;28;20054;-68
2020/12/20 08:32:33;;;;;;;12.52;7.13;;;8.30;99.90;;;;;;5000708;28;20401;-68
2020/12/20 08:35:24;;;;;;;11.43;6.85;;;8.20;99.90;;;;;;5011836;28;20046;-70
2020/12/20 08:37:59;;;;;;;14.88;7.50;;;8.10;99.90;;;;;;5012374;28;20072;-68
2020/12/20 08:40:34;;;;;;;14.23;7.47;;;8.00;99.90;;;;;;5007641;28;20080;-69
2020/12/20 08:43:01;;;;;;;11.52;7.50;;;8.10;99.90;;;;;;5007216;28;20070;-68
2020/12/20 08:45:31;;;;;;;12.45;7.72;;;8.20;99.90;;;;;;5005822;28;20065;-68
2020/12/20 08:48:02;;;;;;;18.45;7.88;;;8.20;99.90;;;;;;5009965;28;20053;-68
2020/12/20 08:50:30;;;;;;;;;;;8.20;99.90;;;;;;5002910;28;20444;-69
2020/12/20 08:53:04;;;;;;;18.98;7.93;;;8.30;99.90;;;;;;5007158;28;19922;-68
2020/12/20 08:55:31;;;;;;;14.30;8.18;;;8.30;99.90;;;;;;5000759;28;20100;-69
2020/12/20 08:58:18;;;;;;;14.73;7.75;;;8.40;99.90;;;;;;4999761;28;20502;-69
2020/12/20 09:00:45;;;;;;;13.00;8.00;;;8.40;99.90;;;;;;5007310;28;20481;-69
2020/12/20 09:03:12;;;;;;;15.70;8.50;;;8.40;99.90;;;;;;5008001;28;20053;-68
2020/12/20 09:05:38;;;;;;;12.73;8.07;;;8.30;99.90;;;;;;4989006;28;20505;-69
2020/12/20 09:08:05;;;;;;;15.52;8.85;;;8.30;99.90;;;;;;5012368;28;20106;-67
2020/12/20 09:10:34;;;;;;;12.90;7.93;;;8.40;99.90;;;;;;5007603;28;20065;-69
2020/12/20 09:13:05;;;;;;;14.05;7.97;;;8.40;99.90;;;;;;5011767;28;20123;-68
2020/12/20 09:15:33;;;;;;;12.40;7.75;;;8.40;99.90;;;;;;5004103;28;20054;-68
2020/12/20 09:18:15;;;;;;;16.35;7.78;;;8.40;99.90;;;;;;5002058;28;20468;-69
2020/12/20 09:20:43;;;;;;;13.40;7.82;;;8.40;99.90;;;;;;5010120;28;20050;-68
2020/12/20 09:23:19;;;;;;;13.77;7.45;;;8.50;99.90;;;;;;4993447;28;20045;-68
2020/12/20 09:25:47;;;;;;;11.93;7.65;;;8.70;99.90;;;;;;5007345;28;20058;-71
2020/12/20 09:28:20;;;;;;;10.50;7.18;;;8.70;99.90;;;;;;5012740;28;20050;-68
2020/12/20 09:30:51;;;;;;;14.70;7.68;;;8.90;99.90;;;;;;5001567;28;20054;-67
2020/12/20 09:33:21;;;;;;;14.02;7.78;;;8.80;99.90;;;;;;5002844;28;20058;-68
2020/12/20 09:36:00;;;;;;;;;;;8.90;99.90;;;;;;5008903;28;20096;-68
2020/12/20 09:38:29;;;;;;;15.63;6.93;;;9.00;99.90;;;;;;5007209;28;19921;-68
2020/12/20 09:40:57;;;;;;;17.95;7.47;;;9.10;99.90;;;;;;5002949;28;20367;-69
2020/12/20 09:43:24;;;;;;;14.57;6.78;;;9.10;99.90;;;;;;5011393;28;20050;-68
2020/12/20 09:45:51;;;;;;;12.05;7.80;;;8.90;99.90;;;;;;4991375;28;20559;-68
2020/12/20 09:48:18;;;;;;;12.02;7.60;;;8.90;99.90;;;;;;5010330;28;20054;-68
2020/12/20 09:50:44;;;;;;;13.18;7.38;;;8.90;99.90;;;;;;5009328;28;20081;-69
2020/12/20 09:53:10;;;;;;;13.18;7.57;;;9.00;99.90;;;;;;5007905;28;20046;-69
2020/12/20 09:55:41;;;;;;;12.20;8.23;;;9.10;99.90;;;;;;5009032;28;20049;-69
2020/12/20 09:58:09;;;;;;;12.77;8.02;;;9.10;99.90;;;;;;5008049;28;20100;-69
2020/12/20 10:00:36;;;;;;;12.30;7.43;;;9.10;99.90;;;;;;5007384;28;20050;-69
2020/12/20 10:03:02;;;;;;;12.55;7.93;;;9.10;99.90;;;;;;5011968;28;20050;-69
2020/12/20 10:05:29;;;;;;;13.05;8.13;;;9.00;99.90;;;;;;5008402;28;20085;-69
2020/12/20 10:07:56;;;;;;;12.52;8.10;;;9.10;99.90;;;;;;5013573;28;20057;-69
2020/12/20 10:10:22;;;;;;;12.73;7.75;;;9.10;99.90;;;;;;5012284;28;20058;-69
2020/12/20 10:12:49;;;;;;;14.50;8.30;;;9.20;99.90;;;;;;5012401;28;20049;-68
2020/12/20 10:15:16;;;;;;;14.88;8.75;;;9.20;99.90;;;;;;5011641;28;20493;-69
2020/12/20 10:17:43;;;;;;;17.27;8.80;;;9.20;99.90;;;;;;5012877;28;20407;-69
2020/12/20 10:20:09;;;;;;;17.50;9.70;;;9.30;99.90;;;;;;4996780;28;20042;-69
2020/12/20 10:22:36;;;;;;;16.35;8.98;;;9.40;99.90;;;;;;5014834;28;20054;-69
2020/12/20 10:25:15;;;;;;;14.48;8.65;;;9.40;99.90;;;;;;5007132;28;20512;-68
2020/12/20 10:27:41;;;;;;;14.35;8.15;;;9.40;99.90;;;;;;5011587;28;20070;-68
2020/12/20 10:30:07;;;;;;;13.45;8.60;;;9.20;99.90;;;;;;5014927;28;20108;-69
2020/12/20 10:32:34;;;;;;;13.05;8.25;;;9.20;99.90;;;;;;5010181;28;20054;-69
2020/12/20 10:35:00;;;;;;;12.45;8.07;;;9.30;99.90;;;;;;5011058;28;20188;-69
2020/12/20 10:37:26;;;;;;;18.55;8.95;;;9.20;99.90;;;;;;5014927;28;20054;-69
2020/12/20 10:39:53;;;;;;;16.25;8.88;;;9.20;99.90;;;;;;5008903;28;20046;-68
2020/12/20 10:42:19;;;;;;;14.63;8.05;;;9.20;99.90;;;;;;5012799;28;20505;-68
2020/12/20 10:44:45;;;;;;;14.20;8.52;;;9.10;99.90;;;;;;5014065;28;20096;-69
2020/12/20 10:47:12;;;;;;;16.83;8.95;;;9.10;99.90;;;;;;5006037;28;20141;-69
2020/12/20 10:49:38;;;;;;;16.00;8.43;;;9.00;99.90;;;;;;5013520;28;20168;-69
2020/12/20 10:52:05;;;;;;;13.85;8.32;;;8.90;99.90;;;;;;4993668;28;20050;-69
2020/12/20 10:54:31;;;;;;;15.02;8.30;;;8.90;99.90;;;;;;5003203;28;20106;-69
2020/12/20 10:56:59;;;;;;;14.15;9.05;;;9.20;99.90;;;;;;5013344;28;20050;-69
2020/12/20 10:59:29;;;;;;;15.57;8.82;;;9.20;99.90;;;;;;5013086;28;20101;-68
2020/12/20 11:01:56;;;;;;;15.85;8.75;;;9.20;99.90;;;;;;5009283;28;20038;-70
2020/12/20 11:04:23;;;;;;;17.13;8.35;;;9.20;99.90;;;;;;5014741;28;20096;-69
2020/12/20 11:06:54;;;;;;;15.00;8.90;;;9.30;99.90;;;;;;5010815;28;20108;-69
2020/12/20 11:09:21;;;;;;;13.57;8.88;;;9.30;99.90;;;;;;5010303;28;20053;-69
2020/12/20 11:11:47;;;;;;;14.20;9.00;;;9.30;99.90;;;;;;5011410;28;20054;-70
2020/12/20 11:14:13;;;;;;;15.55;8.77;;;9.30;99.90;;;;;;5011857;28;20049;-70
2020/12/20 11:16:40;;;;;;;18.08;10.13;;;9.20;99.90;;;;;;5009620;28;20137;-69
2020/12/20 11:19:06;;;;;;;13.93;8.68;;;9.30;99.90;;;;;;5011827;28;20092;-68
2020/12/20 11:21:32;;;;;;;16.48;8.68;;;9.30;99.90;;;;;;5011704;28;20042;-69
2020/12/20 11:23:59;;;;;;;15.13;8.77;;;9.20;99.90;;;;;;5010873;28;20045;-69
2020/12/20 11:26:25;;;;;;;14.90;9.73;;;9.10;99.90;;;;;;5013527;28;20058;-70
2020/12/20 11:28:53;;;;;;;15.38;8.68;;;9.20;99.90;;;;;;5011836;28;20104;-70
2020/12/20 11:31:22;;;;;;;18.25;8.70;;;9.20;99.90;;;;;;4994893;28;20096;-70
2020/12/20 11:33:50;;;;;;;15.05;8.77;;;9.20;99.90;;;;;;5012959;28;20456;-69
2020/12/20 11:36:21;;;;;;;13.38;9.38;;;9.30;99.90;;;;;;5010611;28;20536;-67
2020/12/20 11:38:48;;;;;;;13.15;8.70;;;9.20;99.90;;;;;;5011287;28;20049;-69
2020/12/20 11:41:26;;;;;;;16.08;9.38;;;9.30;99.90;;;;;;5013256;28;20477;-68
2020/12/20 11:43:53;;;;;;;17.17;8.90;;;9.40;99.90;;;;;;5007588;28;20405;-69
2020/12/20 11:46:21;;;;;;;19.08;9.57;;;9.20;99.90;;;;;;5006551;28;20056;-69
2020/12/20 11:48:48;;;;;;;16.42;9.45;;;9.30;99.90;;;;;;5009188;28;20057;-69
2020/12/20 11:51:16;;;;;;;15.55;8.98;;;9.20;99.90;;;;;;5010603;28;20105;-69
2020/12/20 11:53:42;;;;;;;16.15;9.50;;;9.30;99.90;;;;;;4992882;28;20155;-69
2020/12/20 11:56:14;;;;;;;15.68;9.15;;;9.40;99.90;;;;;;5010034;28;20433;-67
2020/12/20 11:58:42;;;;;;;16.98;10.13;;;9.30;99.90;;;;;;5010038;28;20077;-69
2020/12/20 12:01:09;;;;;;;14.35;9.55;;;9.30;99.90;;;;;;5007373;28;20125;-70
2020/12/20 12:03:36;;;;;;;17.58;9.50;;;9.40;99.90;;;;;;5012817;28;20046;-68
2020/12/20 12:06:04;;;;;;;17.25;8.88;;;9.40;99.90;;;;;;5009831;28;20046;-70
2020/12/20 12:08:30;;;;;;;15.30;8.35;;;9.40;99.90;;;;;;5004367;28;20434;-70
2020/12/20 12:10:57;;;;;;;17.58;8.63;;;9.40;99.90;;;;;;5008659;28;20057;-70
2020/12/20 12:13:24;;;;;;;15.38;8.50;;;9.40;99.90;;;;;;5009127;28;20113;-69
2020/12/20 12:15:50;;;;;;;15.98;8.93;;;9.40;99.90;;;;;;5006544;28;20116;-68
2020/12/20 12:18:16;;;;;;;12.48;8.05;;;9.40;99.90;;;;;;5010953;28;20086;-69
2020/12/20 12:20:44;;;;;;;15.43;8.88;;;9.30;99.90;;;;;;5009279;28;20038;-70
2020/12/20 12:23:10;;;;;;;16.75;8.73;;;9.40;99.90;;;;;;4996960;28;20096;-69
2020/12/20 12:25:37;;;;;;;13.05;8.00;;;9.50;99.90;;;;;;5006828;28;20046;-68
2020/12/20 12:28:04;;;;;;;17.08;8.95;;;9.50;99.90;;;;;;5011959;28;20046;-68
2020/12/20 12:30:30;;;;;;;16.73;9.32;;;9.50;99.90;;;;;;5009763;28;20046;-68
2020/12/20 12:32:56;;;;;;;16.58;9.20;;;9.30;99.90;;;;;;4990636;28;20053;-69
2020/12/20 12:35:24;;;;;;;13.70;8.65;;;9.40;99.90;;;;;;5011330;28;20049;-69
2020/12/20 12:37:51;;;;;;;18.40;9.25;;;9.50;99.90;;;;;;5011298;28;20046;-70
2020/12/20 12:40:20;;;;;;;19.58;8.90;;;9.30;99.90;;;;;;5007917;28;20057;-69
2020/12/20 12:42:46;;;;;;;18.75;9.40;;;9.30;99.90;;;;;;5007366;28;20053;-69
2020/12/20 12:45:14;;;;;;;16.15;9.38;;;9.40;99.90;;;;;;5004462;28;20555;-68
2020/12/20 12:47:42;;;;;;;15.95;9.93;;;9.50;99.90;;;;;;5002861;28;20052;-69
2020/12/20 12:50:09;;;;;;;18.05;10.05;;;9.50;99.90;;;;;;5006270;28;20044;-68
2020/12/20 12:52:36;;;;;;;18.98;10.73;;;9.50;99.90;;;;;;4992506;28;20051;-68
2020/12/20 12:55:03;;;;;;;17.70;10.50;;;9.50;99.90;;;;;;5002265;28;20065;-69
2020/12/20 12:57:30;;;;;;;21.15;10.65;;;9.60;99.90;;;;;;5006760;28;20112;-69
2020/12/20 12:59:57;;;;;;;28.70;15.27;;;9.50;99.90;;;;;;5006234;28;20053;-68